Time;durP1;ratioP1;P1;durP2;ratioP2;P2;SDS_P1;SDS_P2;PMS_P1;PMS_P2;Temp;Humidity;BMP_temperature;BMP_pressure;BME280_temperature;BME280_humidity;BME280_pressure;Samples;Min_cycle;Max_cycle;Signal;HPM_P1;HPM_P2
2023/09/11 00:01:20;;;;;;;13.50;9.90;;;;;;;;;;774810;178;910718;-60
2023/09/11 00:03:45;;;;;;;16.70;10.10;;;;;;;;;;769302;178;917465;-64
2023/09/11 00:06:11;;;;;;;13.13;9.93;;;;;;;;;;779559;180;913024;-66
2023/09/11 00:08:37;;;;;;;15.87;10.00;;;;;;;;;;773270;177;949508;-66
2023/09/11 00:11:03;;;;;;;15.50;10.10;;;;;;;;;;774021;180;917797;-67
2023/09/11 00:13:28;;;;;;;12.63;10.30;;;;;;;;;;778292;178;882221;-66
2023/09/11 00:15:54;;;;;;;15.80;9.90;;;;;;;;;;774867;180;910324;-66
2023/09/11 00:18:20;;;;;;;11.10;9.83;;;;;;;;;;773192;180;919315;-67
2023/09/11 00:20:46;;;;;;;19.13;11.60;;;;;;;;;;779434;180;918617;-66
2023/09/11 00:23:12;;;;;;;17.33;10.10;;;;;;;;;;774685;180;918933;-67
2023/09/11 00:25:38;;;;;;;13.07;10.20;;;;;;;;;;772056;178;924572;-67
2023/09/11 00:28:04;;;;;;;18.20;11.27;;;;;;;;;;777420;178;920666;-66
2023/09/11 00:30:30;;;;;;;14.77;11.00;;;;;;;;;;779155;178;918569;-66
2023/09/11 00:32:56;;;;;;;15.03;10.73;;;;;;;;;;773436;179;921915;-66
2023/09/11 00:35:21;;;;;;;15.30;10.70;;;;;;;;;;771336;179;916444;-65
2023/09/11 00:37:47;;;;;;;13.83;10.53;;;;;;;;;;774176;180;916362;-67
2023/09/11 00:40:13;;;;;;;11.03;9.83;;;;;;;;;;770854;180;816731;-66
2023/09/11 00:42:39;;;;;;;15.67;11.03;;;;;;;;;;773273;178;917863;-66
2023/09/11 00:45:05;;;;;;;17.07;11.20;;;;;;;;;;780634;180;896995;-66
2023/09/11 00:47:31;;;;;;;11.50;9.20;;;;;;;;;;774224;178;915247;-66
2023/09/11 00:49:57;;;;;;;15.50;10.77;;;;;;;;;;773697;177;914634;-66
2023/09/11 00:52:23;;;;;;;13.40;10.27;;;;;;;;;;777916;177;918727;-59
2023/09/11 00:54:48;;;;;;;12.40;10.00;;;;;;;;;;773687;181;918704;-61
2023/09/11 00:57:18;;;;;;;11.00;9.47;;;;;;;;;;768734;178;919586;-67
2023/09/11 00:59:40;;;;;;;12.67;10.77;;;;;;;;;;770961;177;915634;-61
2023/09/11 01:02:06;;;;;;;14.37;10.90;;;;;;;;;;780270;180;922020;-61
2023/09/11 01:04:32;;;;;;;11.73;9.70;;;;;;;;;;778556;176;820195;-60
2023/09/11 01:06:58;;;;;;;17.53;8.23;;;;;;;;;;771224;181;915213;-61
2023/09/11 01:09:24;;;;;;;14.37;10.40;;;;;;;;;;779350;181;869206;-66
2023/09/11 01:11:50;;;;;;;13.30;10.30;;;;;;;;;;777669;177;919326;-66
2023/09/11 01:14:15;;;;;;;13.20;10.50;;;;;;;;;;773015;181;917010;-67
2023/09/11 01:16:44;;;;;;;14.80;10.23;;;;;;;;;;779590;177;944963;-62
2023/09/11 01:19:13;;;;;;;14.25;10.90;;;;;;;;;;775529;178;918126;-60
2023/09/11 01:21:56;;;;;;;12.27;9.80;;;;;;;;;;774926;177;942264;-68
2023/09/11 01:24:23;;;;;;;12.20;10.50;;;;;;;;;;775011;177;917976;-61
2023/09/11 01:26:51;;;;;;;18.55;10.35;;;;;;;;;;772148;180;919922;-62
2023/09/11 01:29:16;;;;;;;15.40;10.97;;;;;;;;;;779548;180;919207;-62
2023/09/11 01:31:42;;;;;;;11.93;10.13;;;;;;;;;;776786;180;844110;-67
2023/09/11 01:34:08;;;;;;;16.50;9.70;;;;;;;;;;773758;178;918075;-62
2023/09/11 01:36:34;;;;;;;14.03;9.73;;;;;;;;;;778452;179;919555;-67
2023/09/11 01:39:00;;;;;;;11.10;9.50;;;;;;;;;;775854;180;920126;-61
2023/09/11 01:41:26;;;;;;;14.70;9.25;;;;;;;;;;774458;177;918637;-68
2023/09/11 01:43:52;;;;;;;10.73;9.17;;;;;;;;;;769202;181;919148;-67
2023/09/11 01:46:18;;;;;;;9.87;7.93;;;;;;;;;;779729;181;824044;-61
2023/09/11 01:48:44;;;;;;;17.13;9.80;;;;;;;;;;765481;181;918701;-67
2023/09/11 01:51:10;;;;;;;14.40;9.37;;;;;;;;;;762350;182;918813;-67
2023/09/11 01:53:36;;;;;;;11.83;10.20;;;;;;;;;;779994;177;917696;-61
2023/09/11 01:56:02;;;;;;;13.20;10.80;;;;;;;;;;770677;178;915018;-68
2023/09/11 01:58:27;;;;;;;13.17;10.53;;;;;;;;;;774406;177;942878;-62
2023/09/11 02:00:53;;;;;;;12.70;10.27;;;;;;;;;;777058;180;921849;-61
2023/09/11 02:03:19;;;;;;;14.07;9.93;;;;;;;;;;766670;179;919391;-68
2023/09/11 02:05:45;;;;;;;11.80;7.13;;;;;;;;;;774610;180;919193;-62
2023/09/11 02:08:11;;;;;;;17.45;10.25;;;;;;;;;;775375;181;919182;-67
2023/09/11 02:10:37;;;;;;;10.63;9.17;;;;;;;;;;766621;181;920983;-62
2023/09/11 02:13:03;;;;;;;12.17;10.30;;;;;;;;;;758799;182;920709;-62
2023/09/11 02:15:29;;;;;;;16.83;11.23;;;;;;;;;;772046;180;816709;-63
2023/09/11 02:17:54;;;;;;;14.00;10.10;;;;;;;;;;780864;180;919464;-62
2023/09/11 02:20:20;;;;;;;12.37;10.57;;;;;;;;;;774980;178;919508;-63
2023/09/11 02:22:46;;;;;;;13.17;10.37;;;;;;;;;;777420;178;918774;-62
2023/09/11 02:25:12;;;;;;;11.00;8.43;;;;;;;;;;781483;180;916508;-62
2023/09/11 02:27:38;;;;;;;12.10;9.60;;;;;;;;;;774752;180;919150;-62
2023/09/11 02:30:04;;;;;;;11.07;8.13;;;;;;;;;;771226;180;919029;-62
2023/09/11 02:32:30;;;;;;;16.10;9.27;;;;;;;;;;777981;181;919743;-70
2023/09/11 02:34:56;;;;;;;12.73;9.33;;;;;;;;;;774076;180;944571;-68
2023/09/11 02:37:22;;;;;;;12.85;10.35;;;;;;;;;;769422;180;919126;-68
2023/09/11 02:39:48;;;;;;;9.30;8.40;;;;;;;;;;771430;179;924263;-68
2023/09/11 02:42:13;;;;;;;12.77;8.73;;;;;;;;;;779961;180;913589;-62
2023/09/11 02:44:39;;;;;;;13.47;10.70;;;;;;;;;;775564;177;916533;-62
2023/09/11 02:47:05;;;;;;;13.60;10.67;;;;;;;;;;766944;180;915678;-63
2023/09/11 02:49:31;;;;;;;14.17;10.20;;;;;;;;;;778149;178;914829;-61
2023/09/11 02:51:57;;;;;;;16.50;11.83;;;;;;;;;;777342;180;819278;-61
2023/09/11 02:54:23;;;;;;;18.83;13.40;;;;;;;;;;762376;182;913772;-63
2023/09/11 02:56:49;;;;;;;16.53;12.40;;;;;;;;;;771996;181;917389;-68
2023/09/11 02:59:15;;;;;;;16.40;12.57;;;;;;;;;;770262;181;913455;-63
2023/09/11 03:01:40;;;;;;;23.42;12.43;;;;;;;;;;769739;178;929638;-69
2023/09/11 03:04:06;;;;;;;16.57;11.60;;;;;;;;;;773101;181;1021638;-68
2023/09/11 03:06:32;;;;;;;24.63;12.43;;;;;;;;;;770252;180;919247;-62
2023/09/11 03:08:58;;;;;;;18.60;12.67;;;;;;;;;;768933;180;914057;-61
2023/09/11 03:11:24;;;;;;;22.63;13.10;;;;;;;;;;772499;178;919878;-62
2023/09/11 03:13:50;;;;;;;14.97;11.60;;;;;;;;;;777042;180;819249;-62
2023/09/11 03:16:15;;;;;;;16.00;11.93;;;;;;;;;;770270;179;919710;-68
2023/09/11 03:18:41;;;;;;;15.50;12.10;;;;;;;;;;775792;180;761819;-63
2023/09/11 03:21:07;;;;;;;13.97;9.50;;;;;;;;;;777186;180;918501;-68
2023/09/11 03:23:33;;;;;;;14.90;11.30;;;;;;;;;;776354;180;780427;-62
2023/09/11 03:25:59;;;;;;;13.30;11.17;;;;;;;;;;772055;181;912360;-63
2023/09/11 03:28:27;;;;;;;14.30;11.73;;;;;;;;;;781212;179;917920;-63
2023/09/11 03:30:53;;;;;;;13.17;11.20;;;;;;;;;;782805;177;816108;-61
2023/09/11 03:33:19;;;;;;;13.87;11.10;;;;;;;;;;766514;180;923153;-67
2023/09/11 03:35:46;;;;;;;13.33;11.10;;;;;;;;;;767621;178;919188;-67
2023/09/11 03:38:12;;;;;;;13.00;11.57;;;;;;;;;;779278;178;919022;-62
2023/09/11 03:40:37;;;;;;;14.17;11.00;;;;;;;;;;774760;180;922902;-61
2023/09/11 03:43:04;;;;;;;12.73;10.57;;;;;;;;;;774817;180;920808;-61
2023/09/11 03:45:29;;;;;;;14.17;10.80;;;;;;;;;;777297;181;918174;-61
2023/09/11 03:47:55;;;;;;;12.33;11.03;;;;;;;;;;764609;180;918947;-62
2023/09/11 03:50:21;;;;;;;25.23;16.47;;;;;;;;;;769105;178;914434;-62
2023/09/11 03:52:47;;;;;;;25.23;16.30;;;;;;;;;;781049;178;733747;-62
2023/09/11 03:55:13;;;;;;;22.80;15.80;;;;;;;;;;778215;181;629926;-68
2023/09/11 03:57:38;;;;;;;18.73;14.05;;;;;;;;;;775692;178;631835;-68
2023/09/11 04:00:07;;;;;;;22.30;15.00;;;;;;;;;;779025;180;623400;-62
2023/09/11 04:02:32;;;;;;;19.03;13.47;;;;;;;;;;780729;180;627115;-68
2023/09/11 04:04:58;;;;;;;19.27;13.77;;;;;;;;;;780081;180;617534;-67
2023/09/11 04:07:24;;;;;;;17.43;13.80;;;;;;;;;;778214;177;629493;-68
2023/09/11 04:09:50;;;;;;;17.90;14.17;;;;;;;;;;778305;180;632494;-61
2023/09/11 04:12:17;;;;;;;17.97;14.10;;;;;;;;;;773968;180;630421;-69
2023/09/11 04:14:42;;;;;;;23.13;14.63;;;;;;;;;;778376;177;799178;-61
2023/09/11 04:17:10;;;;;;;19.30;11.60;;;;;;;;;;776372;177;916173;-64
2023/09/11 04:19:33;;;;;;;18.50;12.00;;;;;;;;;;778308;177;746228;-62
2023/09/11 04:21:59;;;;;;;15.40;11.87;;;;;;;;;;777558;178;917344;-68
2023/09/11 04:24:25;;;;;;;15.13;11.23;;;;;;;;;;770868;180;916090;-62
2023/09/11 04:26:52;;;;;;;14.40;11.20;;;;;;;;;;775823;177;880287;-60
2023/09/11 04:29:17;;;;;;;14.55;12.40;;;;;;;;;;774231;180;911928;-62
2023/09/11 04:31:42;;;;;;;15.37;12.30;;;;;;;;;;772945;178;915457;-62
2023/09/11 04:34:08;;;;;;;16.57;13.70;;;;;;;;;;774000;180;810974;-71
2023/09/11 04:36:35;;;;;;;16.43;11.93;;;;;;;;;;769890;180;908675;-62
2023/09/11 04:39:01;;;;;;;15.50;12.33;;;;;;;;;;779447;180;627156;-62
2023/09/11 04:41:26;;;;;;;15.80;12.23;;;;;;;;;;783211;180;625992;-62
2023/09/11 04:43:52;;;;;;;15.30;12.23;;;;;;;;;;779583;180;626431;-70
2023/09/11 04:46:18;;;;;;;16.73;12.33;;;;;;;;;;777477;177;635018;-62
2023/09/11 04:48:43;;;;;;;16.77;13.10;;;;;;;;;;778530;178;628925;-63
2023/09/11 04:51:09;;;;;;;12.83;10.97;;;;;;;;;;773886;181;629807;-66
2023/09/11 04:53:35;;;;;;;16.03;12.30;;;;;;;;;;779836;177;626467;-69
2023/09/11 04:56:01;;;;;;;15.33;12.67;;;;;;;;;;774939;179;618752;-68
2023/09/11 04:58:28;;;;;;;25.67;14.67;;;;;;;;;;781562;177;619255;-69
2023/09/11 05:00:53;;;;;;;17.57;13.83;;;;;;;;;;773587;180;631487;-64
2023/09/11 05:03:18;;;;;;;20.97;13.80;;;;;;;;;;774061;181;922294;-63
2023/09/11 05:05:44;;;;;;;15.40;12.37;;;;;;;;;;777002;181;917947;-62
2023/09/11 05:08:10;;;;;;;19.93;14.53;;;;;;;;;;772197;178;925522;-69
2023/09/11 05:10:41;;;;;;;17.60;13.02;;;;;;;;;;774525;177;919836;-69
2023/09/11 05:13:07;;;;;;;17.57;13.43;;;;;;;;;;760469;179;886818;-63
2023/09/11 05:15:33;;;;;;;16.20;13.53;;;;;;;;;;776237;177;918608;-62
2023/09/11 05:17:58;;;;;;;21.13;14.00;;;;;;;;;;770045;181;918963;-64
2023/09/11 05:20:24;;;;;;;16.05;12.35;;;;;;;;;;772222;180;920173;-63
2023/09/11 05:22:50;;;;;;;16.97;12.77;;;;;;;;;;769129;182;918463;-69
2023/09/11 05:25:16;;;;;;;15.90;12.07;;;;;;;;;;764031;180;921286;-69
2023/09/11 05:27:44;;;;;;;16.13;12.50;;;;;;;;;;771240;178;919074;-61
2023/09/11 05:30:08;;;;;;;17.30;13.23;;;;;;;;;;780708;178;817779;-62
2023/09/11 05:32:34;;;;;;;27.80;14.23;;;;;;;;;;773416;181;918140;-62
2023/09/11 05:35:00;;;;;;;13.63;11.33;;;;;;;;;;776882;181;816802;-62
2023/09/11 05:37:26;;;;;;;19.02;12.98;;;;;;;;;;769848;181;920277;-64
2023/09/11 05:39:52;;;;;;;17.13;12.70;;;;;;;;;;764946;181;919081;-70
2023/09/11 05:42:18;;;;;;;17.53;12.80;;;;;;;;;;773179;181;921634;-62
2023/09/11 05:44:44;;;;;;;18.30;12.60;;;;;;;;;;771462;180;918610;-69
2023/09/11 05:47:10;;;;;;;18.47;11.90;;;;;;;;;;775555;181;919298;-64
2023/09/11 05:49:35;;;;;;;15.63;13.30;;;;;;;;;;777126;178;919025;-64
2023/09/11 05:52:01;;;;;;;18.47;12.30;;;;;;;;;;778375;177;899484;-64
2023/09/11 05:54:29;;;;;;;19.93;13.53;;;;;;;;;;778020;177;913024;-64
2023/09/11 05:56:53;;;;;;;14.47;11.80;;;;;;;;;;772506;179;816714;-63
2023/09/11 05:59:20;;;;;;;16.73;13.40;;;;;;;;;;777966;180;851825;-68
2023/09/11 06:01:45;;;;;;;15.27;12.90;;;;;;;;;;781816;180;816757;-70
2023/09/11 06:04:11;;;;;;;19.90;13.13;;;;;;;;;;766987;181;917261;-70
2023/09/11 06:06:37;;;;;;;15.10;13.27;;;;;;;;;;773032;181;916496;-69
2023/09/11 06:09:06;;;;;;;15.97;13.50;;;;;;;;;;772602;180;905606;-64
2023/09/11 06:11:29;;;;;;;18.47;14.40;;;;;;;;;;776710;180;916665;-63
2023/09/11 06:13:55;;;;;;;15.30;12.73;;;;;;;;;;772722;179;936139;-64
2023/09/11 06:16:21;;;;;;;17.20;12.63;;;;;;;;;;771693;181;919409;-69
2023/09/11 06:18:46;;;;;;;15.80;12.90;;;;;;;;;;777458;180;926130;-63
2023/09/11 06:21:12;;;;;;;20.20;13.95;;;;;;;;;;759684;177;927606;-64
2023/09/11 06:23:38;;;;;;;16.43;11.93;;;;;;;;;;765225;181;916423;-63
2023/09/11 06:26:04;;;;;;;14.75;11.60;;;;;;;;;;777591;180;941557;-63
2023/09/11 06:28:30;;;;;;;12.40;11.00;;;;;;;;;;762497;181;920376;-63
2023/09/11 06:30:56;;;;;;;14.97;11.23;;;;;;;;;;761778;180;872584;-63
2023/09/11 06:33:22;;;;;;;17.73;10.80;;;;;;;;;;772768;179;817942;-63
2023/09/11 06:35:47;;;;;;;15.47;11.03;;;;;;;;;;772320;181;914321;-68
2023/09/11 06:38:13;;;;;;;12.37;10.03;;;;;;;;;;763495;182;915455;-68
2023/09/11 06:40:39;;;;;;;12.02;9.85;;;;;;;;;;772756;180;916657;-61
2023/09/11 06:43:05;;;;;;;10.20;8.57;;;;;;;;;;776939;180;918881;-67
2023/09/11 06:45:33;;;;;;;11.37;9.20;;;;;;;;;;773616;180;922005;-62
2023/09/11 06:47:58;;;;;;;13.70;9.63;;;;;;;;;;773947;180;919610;-67
2023/09/11 06:50:22;;;;;;;15.63;10.30;;;;;;;;;;779541;181;920208;-67
2023/09/11 06:52:48;;;;;;;10.53;9.07;;;;;;;;;;774323;180;918761;-68
2023/09/11 06:55:14;;;;;;;13.70;10.97;;;;;;;;;;775574;177;813976;-67
2023/09/11 06:57:41;;;;;;;13.07;10.20;;;;;;;;;;777918;177;806505;-60
2023/09/11 07:00:10;;;;;;;10.10;9.10;;;;;;;;;;761200;181;915447;-62
2023/09/11 07:02:33;;;;;;;11.40;9.03;;;;;;;;;;777051;176;891539;-67
2023/09/11 07:04:59;;;;;;;172.87;98.87;;;;;;;;;;775235;179;923143;-62
2023/09/11 07:07:25;;;;;;;207.93;125.97;;;;;;;;;;779490;181;922564;-68
2023/09/11 07:09:51;;;;;;;33.13;23.20;;;;;;;;;;772364;181;920240;-63
2023/09/11 07:12:16;;;;;;;36.20;23.43;;;;;;;;;;773801;180;919630;-62
2023/09/11 07:14:42;;;;;;;18.10;11.60;;;;;;;;;;779192;181;924752;-67
2023/09/11 07:17:08;;;;;;;12.97;9.30;;;;;;;;;;759280;181;919487;-69
2023/09/11 07:19:34;;;;;;;13.95;8.70;;;;;;;;;;766585;181;919090;-68
2023/09/11 07:22:00;;;;;;;12.63;9.10;;;;;;;;;;780966;180;819895;-67
2023/09/11 07:24:25;;;;;;;14.10;9.03;;;;;;;;;;772115;180;816918;-68
2023/09/11 07:26:51;;;;;;;12.93;9.23;;;;;;;;;;773490;178;918494;-69
2023/09/11 07:29:17;;;;;;;12.17;9.60;;;;;;;;;;766449;180;946705;-62
2023/09/11 07:31:43;;;;;;;12.23;9.33;;;;;;;;;;774025;180;906331;-62
2023/09/11 07:34:09;;;;;;;13.87;9.37;;;;;;;;;;774521;177;916545;-63
2023/09/11 07:36:35;;;;;;;11.43;8.93;;;;;;;;;;770666;179;918383;-62
2023/09/11 07:39:00;;;;;;;9.87;8.87;;;;;;;;;;770861;180;918994;-67
2023/09/11 07:41:28;;;;;;;22.10;8.80;;;;;;;;;;772412;181;922783;-68
2023/09/11 07:43:53;;;;;;;10.90;8.87;;;;;;;;;;771150;181;920442;-68
2023/09/11 07:46:18;;;;;;;10.53;9.13;;;;;;;;;;772278;180;897566;-63
2023/09/11 07:48:44;;;;;;;12.30;9.00;;;;;;;;;;774152;178;821682;-63
2023/09/11 07:51:10;;;;;;;14.77;8.10;;;;;;;;;;775315;180;920129;-68
2023/09/11 07:53:36;;;;;;;15.00;8.40;;;;;;;;;;774858;181;918738;-68
2023/09/11 07:56:06;;;;;;;13.40;7.57;;;;;;;;;;768385;181;919691;-62
2023/09/11 07:58:31;;;;;;;11.00;7.60;;;;;;;;;;772843;181;918938;-67
2023/09/11 08:00:57;;;;;;;9.33;7.20;;;;;;;;;;767566;181;919010;-68
2023/09/11 08:03:23;;;;;;;12.97;8.27;;;;;;;;;;767346;180;913994;-67
2023/09/11 08:05:49;;;;;;;10.07;8.10;;;;;;;;;;768999;181;920601;-62
2023/09/11 08:08:15;;;;;;;8.77;7.63;;;;;;;;;;777353;177;817092;-66
2023/09/11 08:10:40;;;;;;;10.07;7.83;;;;;;;;;;771728;180;919308;-67
2023/09/11 08:13:06;;;;;;;11.60;7.60;;;;;;;;;;771836;180;896153;-67
2023/09/11 08:15:32;;;;;;;9.07;8.17;;;;;;;;;;775083;176;922413;-62
2023/09/11 08:17:58;;;;;;;10.87;8.70;;;;;;;;;;772756;181;920945;-67
2023/09/11 08:20:24;;;;;;;8.80;7.57;;;;;;;;;;773782;181;918822;-68
2023/09/11 08:22:50;;;;;;;10.73;8.00;;;;;;;;;;773349;179;919181;-66
2023/09/11 08:25:16;;;;;;;8.97;7.83;;;;;;;;;;771414;180;919296;-60
2023/09/11 08:27:42;;;;;;;9.80;8.43;;;;;;;;;;779464;180;816017;-62
2023/09/11 08:30:08;;;;;;;8.10;7.30;;;;;;;;;;771166;177;918130;-61
2023/09/11 08:32:34;;;;;;;15.00;7.90;;;;;;;;;;773299;177;914230;-66
2023/09/11 08:35:00;;;;;;;8.10;7.30;;;;;;;;;;778370;177;919412;-62
2023/09/11 08:37:25;;;;;;;9.30;7.85;;;;;;;;;;772801;180;918953;-60
2023/09/11 08:39:51;;;;;;;8.93;8.03;;;;;;;;;;764048;181;918611;-61
2023/09/11 08:42:17;;;;;;;10.47;8.83;;;;;;;;;;773870;180;918549;-61
2023/09/11 08:44:43;;;;;;;11.80;8.33;;;;;;;;;;775187;179;918938;-60
2023/09/11 08:47:09;;;;;;;8.20;6.93;;;;;;;;;;774199;179;918102;-62
2023/09/11 08:49:35;;;;;;;11.13;7.67;;;;;;;;;;774655;178;913157;-61
2023/09/11 08:52:00;;;;;;;9.30;8.00;;;;;;;;;;767003;181;921361;-60
2023/09/11 08:54:26;;;;;;;8.20;7.20;;;;;;;;;;763925;181;918502;-61
2023/09/11 08:56:52;;;;;;;11.20;7.50;;;;;;;;;;769180;180;919092;-66
2023/09/11 08:59:18;;;;;;;11.70;7.70;;;;;;;;;;776148;178;918128;-60
2023/09/11 09:01:44;;;;;;;9.10;7.70;;;;;;;;;;768182;181;940215;-67
2023/09/11 09:04:11;;;;;;;13.45;7.68;;;;;;;;;;770629;181;932200;-66
2023/09/11 09:06:36;;;;;;;10.03;7.23;;;;;;;;;;773041;181;914870;-68
2023/09/11 09:09:02;;;;;;;11.07;7.90;;;;;;;;;;770097;180;886698;-60
2023/09/11 09:11:27;;;;;;;9.30;8.30;;;;;;;;;;774190;177;925154;-61
2023/09/11 09:13:53;;;;;;;9.03;8.00;;;;;;;;;;778362;180;1021367;-66
2023/09/11 09:16:19;;;;;;;14.50;8.03;;;;;;;;;;767534;181;905422;-66
2023/09/11 09:18:47;;;;;;;9.13;7.43;;;;;;;;;;773906;181;919814;-61
2023/09/11 09:21:13;;;;;;;10.90;8.30;;;;;;;;;;774595;180;919352;-61
2023/09/11 09:23:39;;;;;;;9.70;7.73;;;;;;;;;;775365;181;876576;-61
2023/09/11 09:26:04;;;;;;;13.03;9.00;;;;;;;;;;776088;179;914650;-67
2023/09/11 09:28:32;;;;;;;9.97;7.73;;;;;;;;;;769954;181;919732;-67
2023/09/11 09:30:57;;;;;;;10.97;7.80;;;;;;;;;;774325;181;919426;-67
2023/09/11 09:33:22;;;;;;;10.00;7.47;;;;;;;;;;775923;177;919245;-60
2023/09/11 09:35:47;;;;;;;10.73;7.43;;;;;;;;;;772147;180;919152;-60
2023/09/11 09:38:13;;;;;;;9.63;8.47;;;;;;;;;;778801;181;934935;-66
2023/09/11 09:40:39;;;;;;;20.97;8.03;;;;;;;;;;773779;178;922030;-66
2023/09/11 09:43:06;;;;;;;11.10;7.10;;;;;;;;;;775327;178;919542;-66
2023/09/11 09:45:33;;;;;;;9.67;7.90;;;;;;;;;;769449;177;920491;-67
2023/09/11 09:48:05;;;;;;;9.93;8.20;;;;;;;;;;772882;181;920676;-67
2023/09/11 09:50:31;;;;;;;10.30;8.00;;;;;;;;;;771935;180;919387;-60
2023/09/11 09:52:56;;;;;;;8.37;7.47;;;;;;;;;;773527;177;816641;-61
2023/09/11 09:55:22;;;;;;;12.70;7.13;;;;;;;;;;775737;178;918193;-66
2023/09/11 09:57:48;;;;;;;13.13;7.60;;;;;;;;;;770588;177;916037;-60
2023/09/11 10:00:14;;;;;;;8.00;6.73;;;;;;;;;;770892;178;917026;-66
2023/09/11 10:02:40;;;;;;;8.27;7.03;;;;;;;;;;771950;180;918987;-65
2023/09/11 10:05:06;;;;;;;10.97;7.20;;;;;;;;;;768095;181;919275;-66
2023/09/11 10:07:35;;;;;;;11.30;7.30;;;;;;;;;;768959;181;919814;-67
2023/09/11 10:10:01;;;;;;;11.40;7.77;;;;;;;;;;770835;177;918965;-65
2023/09/11 10:12:26;;;;;;;13.27;8.90;;;;;;;;;;775924;180;919869;-61
2023/09/11 10:14:53;;;;;;;10.43;8.17;;;;;;;;;;773396;178;916228;-61
2023/09/11 10:17:18;;;;;;;8.13;6.90;;;;;;;;;;773204;177;915153;-65
2023/09/11 10:19:44;;;;;;;7.83;7.03;;;;;;;;;;780939;180;916192;-59
2023/09/11 10:22:10;;;;;;;12.63;7.63;;;;;;;;;;772103;180;919397;-60
2023/09/11 10:24:36;;;;;;;9.00;6.50;;;;;;;;;;772703;177;917463;-59
2023/09/11 10:27:01;;;;;;;9.60;6.23;;;;;;;;;;760082;182;922834;-60
2023/09/11 10:29:37;;;;;;;10.23;7.27;;;;;;;;;;772129;179;916934;-59
2023/09/11 10:32:05;;;;;;;19.33;7.63;;;;;;;;;;775742;178;915979;-60
2023/09/11 10:34:31;;;;;;;11.03;7.57;;;;;;;;;;771382;178;920918;-60
2023/09/11 10:36:57;;;;;;;7.97;7.00;;;;;;;;;;775325;178;859174;-65
2023/09/11 10:39:22;;;;;;;10.03;7.30;;;;;;;;;;781433;180;917602;-60
2023/09/11 10:41:48;;;;;;;9.33;7.70;;;;;;;;;;776178;180;919994;-66
2023/09/11 10:44:15;;;;;;;9.47;6.87;;;;;;;;;;769127;177;920281;-60
2023/09/11 10:46:40;;;;;;;12.00;7.50;;;;;;;;;;772776;179;918582;-61
2023/09/11 10:49:12;;;;;;;10.40;7.43;;;;;;;;;;774586;179;877376;-65
2023/09/11 10:51:37;;;;;;;12.63;7.37;;;;;;;;;;769052;180;847713;-60
2023/09/11 10:54:03;;;;;;;15.90;7.90;;;;;;;;;;769141;178;925205;-65
2023/09/11 10:56:29;;;;;;;17.03;8.00;;;;;;;;;;766603;182;919595;-60
2023/09/11 10:58:55;;;;;;;8.07;7.07;;;;;;;;;;773803;180;919962;-67
2023/09/11 11:01:21;;;;;;;7.60;6.80;;;;;;;;;;770843;180;853107;-60
2023/09/11 11:03:47;;;;;;;9.53;7.07;;;;;;;;;;772731;180;936872;-65
2023/09/11 11:06:13;;;;;;;8.40;6.93;;;;;;;;;;772743;178;930516;-67
2023/09/11 11:08:38;;;;;;;7.80;6.70;;;;;;;;;;773248;179;867485;-66
2023/09/11 11:11:04;;;;;;;7.87;7.10;;;;;;;;;;769576;181;916780;-65
2023/09/11 11:13:30;;;;;;;10.13;6.90;;;;;;;;;;768779;179;938372;-60
2023/09/11 11:16:17;;;;;;;8.13;6.47;;;;;;;;;;775389;180;819855;-61
2023/09/11 11:18:44;;;;;;;13.20;7.93;;;;;;;;;;769249;180;923847;-67
2023/09/11 11:21:08;;;;;;;8.67;7.87;;;;;;;;;;770868;180;821962;-66
2023/09/11 11:23:34;;;;;;;12.20;7.17;;;;;;;;;;778093;177;904154;-69
2023/09/11 11:26:00;;;;;;;8.50;6.87;;;;;;;;;;773928;178;920345;-67
2023/09/11 11:28:26;;;;;;;10.23;7.20;;;;;;;;;;770152;180;919900;-61
2023/09/11 11:30:52;;;;;;;8.97;7.00;;;;;;;;;;778452;180;918337;-69
2023/09/11 11:33:18;;;;;;;7.87;7.03;;;;;;;;;;775075;180;922939;-67
2023/09/11 11:35:45;;;;;;;14.27;7.77;;;;;;;;;;758568;184;921323;-66
2023/09/11 11:38:10;;;;;;;7.80;7.00;;;;;;;;;;770309;180;916866;-61
2023/09/11 11:40:36;;;;;;;10.60;8.10;;;;;;;;;;768855;181;920032;-60
2023/09/11 11:43:02;;;;;;;8.93;6.70;;;;;;;;;;773230;180;918900;-60
2023/09/11 11:45:28;;;;;;;8.10;6.60;;;;;;;;;;768021;180;918571;-61
2023/09/11 11:47:54;;;;;;;12.80;7.23;;;;;;;;;;770033;181;916076;-66
2023/09/11 11:50:20;;;;;;;10.50;7.13;;;;;;;;;;764022;180;917137;-61
2023/09/11 11:52:46;;;;;;;12.77;7.70;;;;;;;;;;775051;177;919964;-60
2023/09/11 11:55:18;;;;;;;8.90;7.90;;;;;;;;;;780456;178;817750;-62
2023/09/11 11:57:44;;;;;;;10.23;7.87;;;;;;;;;;771660;179;918784;-62
2023/09/11 12:00:10;;;;;;;8.20;7.40;;;;;;;;;;773555;177;920879;-61
2023/09/11 12:02:36;;;;;;;9.67;7.70;;;;;;;;;;774938;180;917984;-62
2023/09/11 12:05:02;;;;;;;8.90;7.10;;;;;;;;;;769461;181;924748;-61
2023/09/11 12:07:28;;;;;;;11.17;7.80;;;;;;;;;;763736;181;923641;-66
2023/09/11 12:09:54;;;;;;;12.20;7.77;;;;;;;;;;775278;179;814283;-62
2023/09/11 12:12:20;;;;;;;8.20;7.00;;;;;;;;;;773344;181;915872;-60
2023/09/11 12:14:45;;;;;;;9.53;7.80;;;;;;;;;;774086;181;919520;-66
2023/09/11 12:17:11;;;;;;;10.23;8.13;;;;;;;;;;773953;180;917037;-65
2023/09/11 12:19:37;;;;;;;7.83;7.10;;;;;;;;;;775966;178;830380;-63
2023/09/11 12:22:03;;;;;;;8.57;6.60;;;;;;;;;;776626;180;816670;-62
2023/09/11 12:24:30;;;;;;;14.77;7.80;;;;;;;;;;774729;177;918883;-61
2023/09/11 12:26:55;;;;;;;9.33;7.67;;;;;;;;;;772560;181;921886;-69
2023/09/11 12:29:21;;;;;;;7.90;7.10;;;;;;;;;;767476;180;919028;-66
2023/09/11 12:31:47;;;;;;;8.73;7.53;;;;;;;;;;768708;181;919791;-62
2023/09/11 12:34:13;;;;;;;9.50;7.80;;;;;;;;;;769570;181;918818;-65
2023/09/11 12:36:38;;;;;;;12.00;7.20;;;;;;;;;;779091;180;653780;-66
2023/09/11 12:39:05;;;;;;;10.10;6.93;;;;;;;;;;767797;180;918793;-66
2023/09/11 12:41:31;;;;;;;8.53;7.03;;;;;;;;;;770283;181;919384;-66
2023/09/11 12:43:58;;;;;;;9.20;6.43;;;;;;;;;;776818;181;919247;-61
2023/09/11 12:46:24;;;;;;;9.10;7.17;;;;;;;;;;772588;181;914682;-67
2023/09/11 12:48:51;;;;;;;8.63;7.17;;;;;;;;;;762021;183;918494;-65
2023/09/11 12:51:16;;;;;;;10.33;7.70;;;;;;;;;;771553;178;839291;-62
2023/09/11 12:53:42;;;;;;;9.00;7.60;;;;;;;;;;771650;180;918463;-67
2023/09/11 12:56:08;;;;;;;11.03;6.90;;;;;;;;;;773008;180;919552;-60
2023/09/11 12:58:36;;;;;;;7.47;6.67;;;;;;;;;;773479;180;920393;-61
2023/09/11 13:01:02;;;;;;;7.57;6.80;;;;;;;;;;781153;178;928975;-64
2023/09/11 13:03:28;;;;;;;8.80;7.13;;;;;;;;;;774896;180;924004;-65
2023/09/11 13:05:54;;;;;;;9.37;8.00;;;;;;;;;;770716;181;918235;-60
2023/09/11 13:08:20;;;;;;;10.20;7.20;;;;;;;;;;778887;180;916848;-60
2023/09/11 13:10:46;;;;;;;11.00;6.90;;;;;;;;;;771033;181;917086;-65
2023/09/11 13:13:12;;;;;;;10.07;7.23;;;;;;;;;;768723;181;913747;-62
2023/09/11 13:15:38;;;;;;;8.40;7.50;;;;;;;;;;781354;180;851487;-61
2023/09/11 13:18:04;;;;;;;9.97;7.90;;;;;;;;;;774780;178;917030;-59
2023/09/11 13:20:29;;;;;;;9.00;7.53;;;;;;;;;;771401;180;918294;-67
2023/09/11 13:22:55;;;;;;;8.20;7.40;;;;;;;;;;775735;180;816958;-65
2023/09/11 13:25:21;;;;;;;8.97;5.57;;;;;;;;;;781792;178;717430;-65
2023/09/11 13:27:47;;;;;;;13.37;6.90;;;;;;;;;;777818;178;771051;-65
2023/09/11 13:30:13;;;;;;;9.20;7.03;;;;;;;;;;776113;179;624627;-60
2023/09/11 13:32:40;;;;;;;12.80;7.83;;;;;;;;;;781616;177;629134;-60
2023/09/11 13:35:05;;;;;;;11.57;7.33;;;;;;;;;;774868;179;819670;-66
2023/09/11 13:37:31;;;;;;;9.00;6.53;;;;;;;;;;770313;177;919642;-60
2023/09/11 13:39:56;;;;;;;9.33;7.00;;;;;;;;;;777559;180;922226;-60
2023/09/11 13:42:24;;;;;;;16.73;7.10;;;;;;;;;;774600;180;820154;-65
2023/09/11 13:44:51;;;;;;;11.60;6.87;;;;;;;;;;774113;178;817031;-67
2023/09/11 13:47:16;;;;;;;12.07;7.23;;;;;;;;;;773780;181;913448;-66
2023/09/11 13:49:42;;;;;;;11.73;8.40;;;;;;;;;;779650;178;919341;-61
2023/09/11 13:52:08;;;;;;;9.00;7.07;;;;;;;;;;771077;181;919229;-66
2023/09/11 13:54:33;;;;;;;7.77;6.97;;;;;;;;;;768395;180;922637;-66
2023/09/11 13:56:59;;;;;;;10.03;6.87;;;;;;;;;;775781;181;918946;-66
2023/09/11 13:59:25;;;;;;;9.10;6.17;;;;;;;;;;772411;180;919499;-61
2023/09/11 14:01:51;;;;;;;9.20;6.90;;;;;;;;;;765857;179;915699;-67
2023/09/11 14:04:17;;;;;;;9.37;7.00;;;;;;;;;;766162;181;918684;-66
2023/09/11 14:06:43;;;;;;;7.33;6.43;;;;;;;;;;768917;180;867443;-65